createdAt,value
2022-10-31T00:00:55.505Z,33.30
2022-10-31T00:03:22.164Z,33.07
2022-10-31T00:05:50.344Z,33.17
2022-10-31T00:08:18.337Z,25.33
2022-10-31T00:10:46.572Z,31.90
2022-10-31T00:13:15.148Z,38.47
2022-10-31T00:15:42.182Z,35.80
2022-10-31T00:18:10.448Z,30.63
2022-10-31T00:20:39.407Z,29.90
2022-10-31T00:23:07.087Z,35.57
2022-10-31T00:25:36.816Z,39.57
2022-10-31T00:28:05.411Z,38.43
2022-10-31T00:30:32.429Z,45.73
2022-10-31T00:32:59.571Z,36.70
2022-10-31T00:35:26.805Z,39.80
2022-10-31T00:37:53.867Z,46.80
2022-10-31T00:40:20.415Z,43.40
2022-10-31T00:42:46.974Z,45.73
2022-10-31T00:45:13.751Z,42.20
2022-10-31T00:47:40.340Z,57.27
2022-10-31T00:50:08.540Z,51.53
2022-10-31T00:52:35.415Z,52.57
2022-10-31T00:55:02.924Z,45.00
2022-10-31T00:57:29.626Z,51.43
2022-10-31T00:59:56.202Z,46.03
2022-10-31T01:02:22.970Z,53.87
2022-10-31T01:04:49.622Z,45.53
2022-10-31T01:07:16.726Z,41.80
2022-10-31T01:09:45.044Z,50.17
2022-10-31T01:12:11.735Z,40.30
2022-10-31T01:14:43.914Z,52.00
2022-10-31T01:17:10.730Z,35.97
2022-10-31T01:19:37.286Z,54.77
2022-10-31T01:22:03.944Z,42.63
2022-10-31T01:24:30.668Z,44.63
2022-10-31T01:26:57.260Z,60.20
2022-10-31T01:29:24.603Z,48.90
2022-10-31T01:31:51.172Z,49.70
2022-10-31T01:34:18.212Z,58.10
2022-10-31T01:36:48.225Z,56.73
2022-10-31T01:39:16.281Z,51.10
2022-10-31T01:41:46.250Z,59.13
2022-10-31T01:44:13.131Z,60.90
2022-10-31T01:46:51.318Z,40.83
2022-10-31T01:49:26.925Z,51.17
2022-10-31T01:52:15.326Z,50.17
2022-10-31T01:54:51.758Z,51.23
2022-10-31T01:57:21.096Z,53.80
2022-10-31T01:59:53.510Z,51.47
2022-10-31T02:02:21.074Z,48.53
2022-10-31T02:04:49.045Z,51.33
2022-10-31T02:07:24.600Z,45.83
2022-10-31T02:09:53.891Z,47.90
2022-10-31T02:12:21.393Z,50.07
2022-10-31T02:14:47.983Z,56.10
2022-10-31T02:17:16.243Z,52.20
2022-10-31T02:19:54.973Z,60.13
2022-10-31T02:22:57.394Z,64.43
2022-10-31T02:25:54.223Z,56.23
2022-10-31T02:28:21.289Z,61.40
2022-10-31T02:31:09.593Z,58.00
2022-10-31T02:33:45.824Z,64.80
2022-10-31T02:36:22.849Z,59.27
2022-10-31T02:39:02.915Z,59.03
2022-10-31T02:42:10.432Z,52.40
2022-10-31T02:44:52.677Z,50.47
2022-10-31T02:47:25.135Z,59.30
2022-10-31T02:50:01.213Z,55.20
2022-10-31T02:52:30.088Z,54.53
2022-10-31T02:55:25.471Z,52.70
2022-10-31T02:58:03.287Z,60.13
2022-10-31T03:00:39.098Z,60.90
2022-10-31T03:03:11.552Z,70.00
2022-10-31T03:06:05.040Z,59.97
2022-10-31T03:09:15.148Z,64.77
2022-10-31T03:12:05.949Z,87.10
2022-10-31T03:14:55.163Z,70.50
2022-10-31T03:17:37.651Z,67.00
2022-10-31T03:20:07.286Z,66.47
2022-10-31T03:22:35.883Z,73.13
2022-10-31T03:25:05.138Z,67.27
2022-10-31T03:27:36.454Z,76.97
2022-10-31T03:30:06.418Z,67.07
2022-10-31T03:32:52.482Z,66.43
2022-10-31T03:35:23.646Z,75.87
2022-10-31T03:37:52.890Z,364.93
2022-10-31T03:40:22.965Z,58.30
2022-10-31T03:42:58.801Z,63.17
2022-10-31T03:45:30.394Z,70.10
2022-10-31T03:47:59.687Z,116.73
2022-10-31T03:50:36.572Z,137.13
2022-10-31T03:53:14.490Z,334.87
2022-10-31T03:55:52.199Z,57.13
2022-10-31T03:58:29.930Z,64.03
2022-10-31T04:00:58.599Z,51.20
2022-10-31T04:03:31.010Z,61.33
2022-10-31T04:06:05.349Z,142.83
2022-10-31T04:08:36.549Z,124.63
2022-10-31T04:11:06.539Z,164.40
2022-10-31T04:13:37.554Z,326.43
2022-10-31T04:16:17.300Z,570.13
2022-10-31T04:18:44.999Z,332.40
2022-10-31T04:21:11.923Z,157.20
2022-10-31T04:23:38.478Z,65.07
2022-10-31T04:26:15.363Z,176.67
2022-10-31T04:28:44.176Z,54.37
2022-10-31T04:31:13.549Z,446.20
2022-10-31T04:33:40.986Z,110.03
2022-10-31T04:36:08.147Z,50.70
2022-10-31T04:38:35.171Z,31.70
2022-10-31T04:41:05.790Z,55.53
2022-10-31T04:43:44.437Z,278.00
2022-10-31T04:46:11.351Z,347.63
2022-10-31T04:48:38.144Z,653.53
2022-10-31T04:51:06.711Z,127.97
2022-10-31T04:53:34.085Z,221.87
2022-10-31T04:56:26.948Z,253.63
2022-10-31T04:58:58.743Z,394.80
2022-10-31T05:01:26.530Z,209.23
2022-10-31T05:03:55.724Z,342.73
2022-10-31T05:06:22.351Z,131.93
2022-10-31T05:08:49.156Z,96.07
2022-10-31T05:11:15.771Z,94.33
2022-10-31T05:13:44.493Z,96.00
2022-10-31T05:16:14.221Z,77.07
2022-10-31T05:19:15.655Z,86.30
2022-10-31T05:22:11.961Z,117.10
2022-10-31T05:24:38.889Z,78.90
2022-10-31T05:27:05.457Z,243.00
2022-10-31T05:29:34.290Z,167.53
2022-10-31T05:32:03.699Z,194.43
2022-10-31T05:34:48.993Z,398.43
2022-10-31T05:37:42.110Z,375.80
2022-10-31T05:40:12.322Z,484.77
2022-10-31T05:42:41.201Z,400.30
2022-10-31T05:45:09.954Z,458.07
2022-10-31T05:47:53.944Z,382.33
2022-10-31T05:50:39.193Z,295.67
2022-10-31T05:53:09.580Z,247.20
2022-10-31T05:55:38.101Z,373.57
2022-10-31T05:58:21.932Z,160.17
2022-10-31T06:00:54.499Z,204.23
2022-10-31T06:03:21.130Z,436.87
2022-10-31T06:05:55.053Z,322.47
2022-10-31T06:08:25.158Z,229.67
2022-10-31T06:10:53.959Z,279.93
2022-10-31T06:13:28.869Z,457.47
2022-10-31T06:16:01.798Z,358.00
2022-10-31T06:18:34.680Z,532.97
2022-10-31T06:21:01.380Z,328.33
2022-10-31T06:23:28.863Z,379.03
2022-10-31T06:26:15.424Z,435.60
2022-10-31T06:28:42.126Z,175.97
2022-10-31T06:31:27.190Z,222.33
2022-10-31T06:33:54.047Z,504.77
2022-10-31T06:36:21.039Z,429.30
2022-10-31T06:38:47.638Z,191.07
2022-10-31T06:41:16.831Z,277.17
2022-10-31T06:43:48.169Z,286.10
2022-10-31T06:46:37.892Z,202.53
2022-10-31T06:49:23.466Z,138.77
2022-10-31T06:51:54.089Z,426.53
2022-10-31T06:54:22.298Z,93.03
2022-10-31T06:56:49.588Z,299.20
2022-10-31T06:59:16.630Z,255.17
2022-10-31T07:02:12.295Z,278.10
2022-10-31T07:04:40.369Z,381.73
2022-10-31T07:07:07.886Z,281.90
2022-10-31T07:09:35.735Z,199.77
2022-10-31T07:12:04.383Z,219.70
2022-10-31T07:14:33.417Z,126.80
2022-10-31T07:17:01.031Z,212.63
2022-10-31T07:19:33.658Z,139.33
2022-10-31T07:22:00.220Z,170.23
2022-10-31T07:24:29.290Z,173.70
2022-10-31T07:27:14.587Z,198.10
2022-10-31T07:29:44.778Z,187.93
2022-10-31T07:32:12.154Z,175.93
2022-10-31T07:34:47.475Z,104.03
2022-10-31T07:37:22.673Z,91.43
2022-10-31T07:39:49.506Z,69.63
2022-10-31T07:42:16.585Z,69.53
2022-10-31T07:44:45.233Z,65.20
2022-10-31T07:47:30.837Z,62.00
2022-10-31T07:50:19.856Z,100.57
2022-10-31T07:53:14.055Z,65.63
2022-10-31T07:55:53.509Z,49.00
2022-10-31T07:58:20.189Z,49.33
2022-10-31T08:00:48.381Z,59.93
2022-10-31T08:03:21.615Z,46.23
2022-10-31T08:06:10.808Z,53.43
2022-10-31T08:08:55.787Z,57.73
2022-10-31T08:11:23.131Z,40.10
2022-10-31T08:13:50.122Z,34.13
2022-10-31T08:16:16.760Z,34.10
2022-10-31T08:18:51.732Z,41.33
2022-10-31T08:21:19.469Z,43.43
2022-10-31T08:23:46.326Z,37.63
2022-10-31T08:26:14.320Z,48.23
2022-10-31T08:28:40.979Z,53.93
2022-10-31T08:31:07.599Z,51.43
2022-10-31T08:33:39.790Z,44.50
2022-10-31T08:36:32.514Z,50.73
2022-10-31T08:39:06.046Z,47.17
2022-10-31T08:41:33.213Z,52.57
2022-10-31T08:44:00.872Z,69.50
2022-10-31T08:46:27.526Z,84.13
2022-10-31T08:48:54.094Z,84.57
2022-10-31T08:51:21.171Z,113.20
2022-10-31T08:53:51.425Z,155.67
2022-10-31T08:56:33.126Z,141.20
2022-10-31T08:59:02.171Z,192.03
2022-10-31T09:01:54.702Z,142.83
2022-10-31T09:04:21.717Z,138.17
2022-10-31T09:07:19.711Z,148.33
2022-10-31T09:09:34.977Z,117.47
2022-10-31T09:12:02.037Z,99.03
2022-10-31T09:14:47.016Z,121.60
2022-10-31T09:17:27.668Z,102.10
2022-10-31T09:20:14.419Z,141.20
2022-10-31T09:22:43.024Z,127.50
2022-10-31T09:25:10.108Z,111.80
2022-10-31T09:27:37.953Z,76.30
2022-10-31T09:30:07.163Z,80.13
2022-10-31T09:32:33.985Z,110.43
2022-10-31T09:35:00.760Z,64.47
2022-10-31T09:37:28.522Z,76.70
2022-10-31T09:39:55.185Z,79.43
2022-10-31T09:42:49.183Z,62.27
2022-10-31T09:45:44.224Z,56.40
2022-10-31T09:48:50.506Z,64.03
2022-10-31T09:51:49.183Z,57.17
2022-10-31T09:54:45.991Z,75.37
2022-10-31T09:57:19.646Z,56.67
2022-10-31T09:59:50.347Z,71.70
2022-10-31T10:02:24.055Z,56.73
2022-10-31T10:04:57.996Z,53.40
2022-10-31T10:08:09.605Z,58.83
2022-10-31T10:11:27.116Z,42.20
2022-10-31T10:14:05.465Z,125.73
2022-10-31T10:16:53.380Z,198.57
2022-10-31T10:19:49.585Z,99.37
2022-10-31T10:22:43.250Z,175.17
2022-10-31T10:25:21.737Z,70.30
2022-10-31T10:28:21.258Z,74.03
2022-10-31T10:31:11.207Z,69.93
2022-10-31T10:33:42.344Z,51.83
2022-10-31T10:36:26.840Z,58.83
2022-10-31T10:39:00.006Z,45.13
2022-10-31T10:41:34.282Z,50.00
2022-10-31T10:44:01.487Z,48.07
2022-10-31T10:47:01.026Z,44.60
2022-10-31T10:49:52.680Z,53.57
2022-10-31T10:52:44.764Z,42.33
2022-10-31T10:55:31.598Z,42.40
2022-10-31T10:58:04.469Z,45.40
2022-10-31T11:00:35.798Z,53.57
2022-10-31T11:03:02.884Z,48.77
2022-10-31T11:05:37.785Z,47.30
2022-10-31T11:08:05.846Z,55.73
2022-10-31T11:10:34.158Z,52.33
2022-10-31T11:13:10.794Z,47.97
2022-10-31T11:15:51.141Z,52.47
2022-10-31T11:20:55.990Z,54.40
2022-10-31T11:23:25.012Z,53.13
2022-10-31T11:26:04.834Z,53.90
2022-10-31T11:28:35.200Z,58.30
2022-10-31T11:31:06.336Z,51.73
2022-10-31T11:33:36.522Z,45.67
2022-10-31T11:36:15.634Z,48.83
2022-10-31T11:38:44.137Z,47.37
2022-10-31T11:41:28.548Z,50.53
2022-10-31T11:44:05.528Z,46.53
2022-10-31T11:46:34.780Z,55.20
2022-10-31T11:49:04.001Z,54.73
2022-10-31T11:51:33.744Z,45.03
2022-10-31T11:54:05.390Z,55.80
2022-10-31T11:56:42.865Z,43.13
2022-10-31T11:59:30.213Z,58.03
2022-10-31T12:01:59.068Z,46.03
2022-10-31T12:04:45.347Z,44.13
2022-10-31T12:07:12.276Z,49.03
2022-10-31T12:09:39.457Z,44.40
2022-10-31T12:12:09.013Z,50.47
2022-10-31T12:14:45.686Z,45.10
2022-10-31T12:17:20.896Z,47.07
2022-10-31T12:20:06.714Z,45.70
2022-10-31T12:22:55.753Z,40.20
2022-10-31T12:25:37.501Z,45.37
2022-10-31T12:28:20.793Z,46.33
2022-10-31T12:30:50.016Z,47.73
2022-10-31T12:33:30.868Z,37.27
2022-10-31T12:36:15.328Z,41.63
2022-10-31T12:38:49.540Z,35.20
2022-10-31T12:41:28.175Z,35.60
2022-10-31T12:44:07.636Z,40.00
2022-10-31T12:47:11.553Z,39.40
2022-10-31T12:49:53.105Z,34.30
2022-10-31T12:52:41.173Z,41.07
2022-10-31T12:55:53.347Z,43.90
2022-10-31T12:58:28.054Z,31.60
2022-10-31T13:01:09.040Z,27.10
2022-10-31T13:04:02.514Z,30.63
2022-10-31T13:06:39.492Z,34.53
2022-10-31T13:09:13.805Z,34.50
2022-10-31T13:11:46.004Z,26.57
2022-10-31T13:14:21.387Z,29.77
2022-10-31T13:16:49.032Z,31.03
2022-10-31T13:19:24.701Z,32.30
2022-10-31T13:21:51.177Z,32.73
2022-10-31T13:24:24.383Z,31.40
2022-10-31T13:26:58.091Z,31.63
2022-10-31T13:29:35.232Z,28.33
2022-10-31T13:32:06.169Z,22.57
2022-10-31T13:34:46.342Z,26.03
2022-10-31T13:37:31.507Z,23.37
2022-10-31T13:40:13.937Z,21.80
2022-10-31T13:42:46.473Z,22.57
2022-10-31T13:45:17.842Z,20.43
2022-10-31T13:47:55.323Z,23.23
2022-10-31T13:50:31.107Z,25.30
2022-10-31T13:53:20.630Z,21.83
2022-10-31T13:55:48.428Z,21.00
2022-10-31T13:58:25.836Z,26.40
2022-10-31T14:01:19.676Z,22.70
2022-10-31T14:04:12.252Z,24.90
2022-10-31T14:06:54.429Z,25.60
2022-10-31T14:09:33.969Z,21.33
2022-10-31T14:12:12.844Z,20.67
2022-10-31T14:14:48.522Z,18.47
2022-10-31T14:17:26.599Z,25.50
2022-10-31T14:20:01.729Z,24.27
2022-10-31T14:22:36.354Z,15.63
2022-10-31T14:25:33.226Z,16.30
2022-10-31T14:28:03.300Z,13.80
2022-10-31T14:30:31.420Z,20.57
2022-10-31T14:33:03.481Z,14.27
2022-10-31T14:35:57.830Z,23.23
2022-10-31T14:38:45.757Z,13.47
2022-10-31T14:41:29.278Z,16.23
2022-10-31T14:44:26.479Z,15.03
2022-10-31T14:47:10.354Z,14.90
2022-10-31T14:49:58.930Z,17.60
2022-10-31T14:52:26.014Z,15.20
2022-10-31T14:54:55.757Z,11.67
2022-10-31T14:57:33.772Z,17.50
2022-10-31T15:00:06.036Z,15.70
2022-10-31T15:02:39.725Z,14.70
2022-10-31T15:05:11.228Z,18.13
2022-10-31T15:07:50.627Z,12.50
2022-10-31T15:10:23.589Z,19.80
2022-10-31T15:12:50.565Z,13.90
2022-10-31T15:15:27.617Z,28.70
2022-10-31T15:18:00.687Z,16.23
2022-10-31T15:20:31.458Z,14.07
2022-10-31T15:23:00.181Z,21.27
2022-10-31T15:25:31.106Z,20.67
2022-10-31T15:27:58.011Z,16.13
2022-10-31T15:30:27.995Z,16.83
2022-10-31T15:32:58.654Z,20.43
2022-10-31T15:35:31.463Z,19.10
2022-10-31T15:38:00.298Z,16.90
2022-10-31T15:40:29.251Z,33.10
2022-10-31T15:43:00.108Z,28.23
2022-10-31T15:45:28.906Z,29.73
2022-10-31T15:47:59.325Z,21.83
2022-10-31T15:50:41.175Z,16.90
2022-10-31T15:53:29.135Z,17.43
2022-10-31T15:56:17.252Z,16.03
2022-10-31T15:58:46.437Z,42.30
2022-10-31T16:01:33.696Z,32.83
2022-10-31T16:04:23.685Z,10.77
2022-10-31T16:07:02.974Z,12.23
2022-10-31T16:09:29.869Z,21.57
2022-10-31T16:11:59.367Z,11.80
2022-10-31T16:14:38.059Z,15.40
2022-10-31T16:17:04.625Z,11.93
2022-10-31T16:19:34.983Z,21.53
2022-10-31T16:22:13.053Z,16.17
2022-10-31T16:24:52.754Z,10.80
2022-10-31T16:27:26.509Z,9.07
2022-10-31T16:29:53.726Z,11.70
2022-10-31T16:32:56.337Z,9.23
2022-10-31T16:35:36.014Z,8.60
2022-10-31T16:38:03.282Z,12.83
2022-10-31T16:40:31.283Z,11.47
2022-10-31T16:43:00.123Z,17.37
2022-10-31T16:45:30.178Z,12.77
2022-10-31T16:48:05.217Z,12.37
2022-10-31T16:50:31.807Z,9.53
2022-10-31T16:53:13.390Z,13.67
2022-10-31T16:55:56.656Z,11.73
2022-10-31T16:58:28.652Z,16.07
2022-10-31T17:00:55.395Z,9.20
2022-10-31T17:03:22.068Z,16.23
2022-10-31T17:05:49.072Z,11.57
2022-10-31T17:08:16.397Z,8.20
2022-10-31T17:10:45.243Z,11.13
2022-10-31T17:13:18.001Z,11.57
2022-10-31T17:15:50.196Z,9.07
2022-10-31T17:18:20.563Z,11.80
2022-10-31T17:20:55.689Z,9.30
2022-10-31T17:23:22.318Z,11.13
2022-10-31T17:25:48.878Z,12.73
2022-10-31T17:28:15.674Z,9.07
2022-10-31T17:30:42.999Z,10.03
2022-10-31T17:33:15.082Z,10.37
2022-10-31T17:35:45.948Z,13.97
2022-10-31T17:38:13.296Z,19.23
2022-10-31T17:40:44.108Z,10.03
2022-10-31T17:43:11.312Z,13.80
2022-10-31T17:45:42.108Z,13.10
2022-10-31T17:48:12.913Z,11.90
2022-10-31T17:50:39.661Z,12.03
2022-10-31T17:53:06.240Z,10.33
2022-10-31T17:55:37.158Z,14.73
2022-10-31T17:58:05.264Z,15.53
2022-10-31T18:00:31.925Z,16.73
2022-10-31T18:02:58.900Z,13.73
2022-10-31T18:05:25.732Z,19.83
2022-10-31T18:07:52.457Z,17.80
2022-10-31T18:10:19.164Z,15.63
2022-10-31T18:12:46.004Z,25.13
2022-10-31T18:15:12.619Z,21.90
2022-10-31T18:17:42.010Z,20.40
2022-10-31T18:20:10.200Z,28.77
2022-10-31T18:22:36.845Z,28.20
2022-10-31T18:25:04.466Z,21.33
2022-10-31T18:27:31.638Z,31.53
2022-10-31T18:29:58.216Z,28.80
2022-10-31T18:32:24.815Z,34.53
2022-10-31T18:34:51.391Z,28.63
2022-10-31T18:37:18.220Z,29.57
2022-10-31T18:39:44.905Z,33.63
2022-10-31T18:42:11.542Z,28.53
2022-10-31T18:44:38.247Z,25.30
2022-10-31T18:47:04.924Z,36.27
2022-10-31T18:49:32.718Z,25.33
2022-10-31T18:52:00.153Z,30.10
2022-10-31T18:54:27.136Z,32.67
2022-10-31T18:56:54.541Z,34.23
2022-10-31T18:59:21.402Z,34.37
2022-10-31T19:01:48.093Z,35.30
2022-10-31T19:04:14.716Z,32.60
2022-10-31T19:06:41.286Z,36.43
2022-10-31T19:09:09.703Z,31.30
2022-10-31T19:11:37.716Z,32.60
2022-10-31T19:14:08.157Z,30.43
2022-10-31T19:16:35.185Z,36.77
2022-10-31T19:19:01.839Z,29.57
2022-10-31T19:21:30.325Z,54.30
2022-10-31T19:23:58.052Z,43.87
2022-10-31T19:26:26.410Z,38.20
2022-10-31T19:28:53.435Z,40.00
2022-10-31T19:31:20.042Z,38.40
2022-10-31T19:33:47.043Z,49.87
2022-10-31T19:36:15.878Z,48.60
2022-10-31T19:38:44.982Z,45.30
2022-10-31T19:41:14.378Z,41.93
2022-10-31T19:43:41.345Z,46.60
2022-10-31T19:46:17.463Z,42.63
2022-10-31T19:48:55.173Z,46.17
2022-10-31T19:51:22.572Z,45.63
2022-10-31T19:53:52.431Z,43.57
2022-10-31T19:56:21.425Z,45.23
2022-10-31T19:58:48.397Z,52.93
2022-10-31T20:01:20.323Z,58.03
2022-10-31T20:03:48.542Z,50.67
2022-10-31T20:06:30.641Z,63.07
2022-10-31T20:08:57.617Z,61.70
2022-10-31T20:11:28.015Z,51.93
2022-10-31T20:13:56.402Z,58.60
2022-10-31T20:16:24.125Z,59.97
2022-10-31T20:18:50.762Z,50.57
2022-10-31T20:21:20.246Z,53.60
2022-10-31T20:23:50.606Z,60.43
2022-10-31T20:26:19.198Z,59.80
2022-10-31T20:28:46.955Z,64.87
2022-10-31T20:31:22.744Z,76.67
2022-10-31T20:33:50.153Z,67.00
2022-10-31T20:36:23.689Z,63.73
2022-10-31T20:38:52.204Z,65.67
2022-10-31T20:41:19.442Z,69.17
2022-10-31T20:43:46.256Z,75.53
2022-10-31T20:46:19.237Z,70.93
2022-10-31T20:48:46.164Z,60.37
2022-10-31T20:51:17.931Z,72.90
2022-10-31T20:53:45.242Z,66.57
2022-10-31T20:56:16.107Z,73.20
2022-10-31T20:58:43.632Z,68.33
2022-10-31T21:01:18.855Z,75.50
2022-10-31T21:03:46.443Z,63.90
2022-10-31T21:06:13.866Z,61.03
2022-10-31T21:08:40.586Z,73.57
2022-10-31T21:11:18.759Z,69.33
2022-10-31T21:13:46.767Z,62.93
2022-10-31T21:16:19.510Z,75.37
2022-10-31T21:18:47.698Z,62.93
2022-10-31T21:21:21.765Z,64.23
2022-10-31T21:23:53.022Z,70.57
2022-10-31T21:26:21.351Z,68.40
2022-10-31T21:28:49.707Z,59.80
2022-10-31T21:31:17.751Z,62.67
2022-10-31T21:33:45.519Z,61.30
2022-10-31T21:36:13.048Z,71.17
2022-10-31T21:38:40.081Z,56.70
2022-10-31T21:41:14.742Z,59.17
2022-10-31T21:43:44.046Z,66.17
2022-10-31T21:46:12.900Z,68.77
2022-10-31T21:48:44.012Z,62.57
2022-10-31T21:51:22.085Z,73.20
2022-10-31T21:54:07.691Z,63.80
2022-10-31T21:56:34.720Z,59.13
2022-10-31T21:59:01.965Z,71.50
2022-10-31T22:01:29.549Z,77.80
2022-10-31T22:03:57.179Z,69.30
2022-10-31T22:06:27.777Z,77.57
2022-10-31T22:08:54.366Z,73.90
2022-10-31T22:11:21.836Z,78.37
2022-10-31T22:13:50.373Z,74.33
2022-10-31T22:16:19.422Z,84.33
2022-10-31T22:18:46.673Z,77.60
2022-10-31T22:21:17.818Z,73.00
2022-10-31T22:23:49.507Z,86.73
2022-10-31T22:26:16.211Z,69.60
2022-10-31T22:28:47.668Z,74.00
2022-10-31T22:31:17.066Z,81.70
2022-10-31T22:33:44.501Z,79.87
2022-10-31T22:36:14.571Z,82.77
2022-10-31T22:38:41.986Z,87.80
2022-10-31T22:41:14.398Z,85.20
2022-10-31T22:43:41.410Z,82.07
2022-10-31T22:46:11.870Z,100.70
2022-10-31T22:48:41.594Z,94.50
2022-10-31T22:51:29.604Z,91.80
2022-10-31T22:53:56.763Z,89.40
2022-10-31T22:56:26.352Z,103.20
2022-10-31T22:58:53.645Z,104.97
2022-10-31T23:01:23.213Z,96.37
2022-10-31T23:03:50.265Z,87.03
2022-10-31T23:06:19.407Z,91.87
2022-10-31T23:08:47.023Z,83.63
2022-10-31T23:11:18.981Z,96.17
2022-10-31T23:14:08.901Z,90.13
2022-10-31T23:16:47.081Z,92.07
2022-10-31T23:19:20.600Z,92.80
2022-10-31T23:21:55.588Z,89.57
2022-10-31T23:24:36.599Z,94.93
2022-10-31T23:27:10.616Z,92.73
2022-10-31T23:29:55.196Z,111.30
2022-10-31T23:32:30.143Z,97.30
2022-10-31T23:34:59.328Z,109.00
2022-10-31T23:37:28.815Z,83.93
2022-10-31T23:39:55.968Z,109.50
2022-10-31T23:42:23.664Z,103.33
2022-10-31T23:44:50.541Z,91.70
2022-10-31T23:47:18.074Z,117.60
2022-10-31T23:49:44.784Z,109.63
2022-10-31T23:52:12.037Z,103.10
2022-10-31T23:54:39.954Z,104.70
2022-10-31T23:57:06.861Z,106.63
2022-10-31T23:59:33.469Z,93.63
